createdAt,value
2022-12-22T00:01:56.563Z,4.22
2022-12-22T00:04:42.560Z,4.27
2022-12-22T00:07:28.428Z,4.29
2022-12-22T00:10:14.078Z,4.35
2022-12-22T00:12:59.764Z,4.22
2022-12-22T00:15:46.599Z,4.13
2022-12-22T00:18:35.829Z,4.30
2022-12-22T00:21:21.468Z,4.26
2022-12-22T00:24:07.071Z,4.22
2022-12-22T00:26:55.958Z,4.19
2022-12-22T00:29:41.627Z,4.24
2022-12-22T00:32:35.720Z,4.25
2022-12-22T00:35:22.788Z,4.33
2022-12-22T00:38:08.026Z,4.31
2022-12-22T00:40:53.444Z,4.43
2022-12-22T00:43:38.928Z,4.38
2022-12-22T00:46:24.655Z,4.43
2022-12-22T00:49:09.856Z,4.44
2022-12-22T00:51:55.502Z,4.57
2022-12-22T00:54:42.395Z,4.53
2022-12-22T00:57:36.607Z,4.61
2022-12-22T01:00:23.907Z,4.54
2022-12-22T01:03:10.096Z,4.49
2022-12-22T01:05:55.809Z,4.51
2022-12-22T01:08:41.490Z,4.49
2022-12-22T01:11:27.046Z,4.49
2022-12-22T01:14:12.765Z,4.47
2022-12-22T01:16:58.519Z,4.53
2022-12-22T01:19:46.211Z,4.59
2022-12-22T01:22:37.157Z,4.45
2022-12-22T01:25:30.137Z,4.43
2022-12-22T01:28:15.580Z,4.34
2022-12-22T01:31:02.222Z,4.19
2022-12-22T01:33:47.862Z,4.33
2022-12-22T01:36:35.464Z,4.36
2022-12-22T01:39:22.546Z,4.38
2022-12-22T01:42:09.409Z,4.29
2022-12-22T01:44:57.968Z,4.28
2022-12-22T01:47:53.910Z,4.33
2022-12-22T01:50:52.775Z,4.29
2022-12-22T01:53:42.017Z,4.30
2022-12-22T01:56:29.632Z,4.28
2022-12-22T01:59:18.008Z,4.41
2022-12-22T02:02:04.187Z,4.35
2022-12-22T02:04:56.235Z,4.40
2022-12-22T02:08:12.902Z,4.45
2022-12-22T02:11:01.386Z,4.37
2022-12-22T02:14:09.742Z,4.34
2022-12-22T02:17:10.259Z,4.44
2022-12-22T02:20:23.026Z,4.49
2022-12-22T02:23:11.320Z,4.54
2022-12-22T02:26:06.598Z,4.44
2022-12-22T02:28:53.468Z,4.33
2022-12-22T02:31:39.153Z,4.31
2022-12-22T02:34:34.775Z,4.28
2022-12-22T02:37:35.530Z,4.23
2022-12-22T02:40:41.367Z,4.19
2022-12-22T02:43:49.692Z,4.25
2022-12-22T02:47:06.572Z,4.24
2022-12-22T02:50:12.166Z,4.27
2022-12-22T02:52:59.904Z,4.32
2022-12-22T02:55:47.100Z,4.23
2022-12-22T02:58:34.417Z,4.18
2022-12-22T03:01:21.980Z,4.21
2022-12-22T03:04:08.371Z,4.30
2022-12-22T03:06:53.713Z,4.28
2022-12-22T03:09:39.005Z,4.28
2022-12-22T03:12:24.508Z,4.22
2022-12-22T03:15:10.294Z,4.20
2022-12-22T03:17:55.476Z,4.25
2022-12-22T03:20:41.220Z,4.24
2022-12-22T03:23:26.683Z,4.32
2022-12-22T03:25:56.516Z,4.26
2022-12-22T03:28:26.868Z,4.33
2022-12-22T03:31:00.669Z,4.23
2022-12-22T03:33:28.797Z,4.28
2022-12-22T03:35:55.757Z,4.35
2022-12-22T03:38:23.098Z,4.43
2022-12-22T03:40:50.257Z,4.37
2022-12-22T03:43:36.838Z,4.32
2022-12-22T03:46:22.980Z,4.44
2022-12-22T03:49:10.156Z,4.36
2022-12-22T03:51:40.976Z,4.35
2022-12-22T03:54:08.339Z,4.46
2022-12-22T03:56:35.518Z,4.46
2022-12-22T03:59:02.958Z,4.51
2022-12-22T04:01:30.624Z,4.56
2022-12-22T04:03:58.133Z,4.71
2022-12-22T04:06:25.273Z,4.72
2022-12-22T04:08:52.344Z,4.63
2022-12-22T04:11:37.795Z,4.81
2022-12-22T04:14:05.287Z,4.78
2022-12-22T04:16:32.718Z,4.86
2022-12-22T04:19:00.283Z,4.76
2022-12-22T04:21:27.698Z,4.36
2022-12-22T04:23:54.972Z,4.43
2022-12-22T04:26:24.128Z,4.37
2022-12-22T04:28:52.296Z,4.43
2022-12-22T04:31:19.791Z,4.46
2022-12-22T04:33:47.045Z,4.47
2022-12-22T04:36:14.217Z,4.40
2022-12-22T04:38:41.657Z,4.40
2022-12-22T04:41:09.082Z,4.33
2022-12-22T04:43:36.754Z,4.41
2022-12-22T04:46:04.780Z,4.37
2022-12-22T04:48:32.387Z,4.39
2022-12-22T04:51:01.009Z,4.38
2022-12-22T04:53:29.238Z,4.38
2022-12-22T04:55:59.637Z,4.36
2022-12-22T04:58:27.443Z,4.39
2022-12-22T05:00:54.496Z,4.43
2022-12-22T05:03:21.763Z,4.36
2022-12-22T05:05:48.798Z,4.35
2022-12-22T05:08:15.736Z,4.34
2022-12-22T05:10:42.788Z,4.44
2022-12-22T05:13:09.694Z,4.41
2022-12-22T05:15:37.345Z,4.45
2022-12-22T05:18:05.027Z,4.44
2022-12-22T05:20:32.175Z,4.36
2022-12-22T05:22:59.811Z,4.32
2022-12-22T05:25:32.909Z,4.38
2022-12-22T05:28:01.923Z,4.38
2022-12-22T05:30:28.846Z,4.43
2022-12-22T05:32:56.073Z,4.35
2022-12-22T05:35:23.297Z,4.42
2022-12-22T05:37:50.342Z,4.43
2022-12-22T05:40:17.796Z,4.26
2022-12-22T05:42:44.977Z,4.33
2022-12-22T05:45:15.759Z,4.23
2022-12-22T05:47:47.514Z,4.11
2022-12-22T05:50:16.454Z,4.13
2022-12-22T05:52:43.677Z,4.09
2022-12-22T05:55:12.336Z,3.97
2022-12-22T05:57:39.606Z,3.84
2022-12-22T06:00:08.679Z,3.39
2022-12-22T06:02:36.045Z,3.26
2022-12-22T06:05:03.307Z,3.18
2022-12-22T06:07:30.186Z,3.16
2022-12-22T06:09:57.160Z,3.02
2022-12-22T06:12:24.057Z,3.21
2022-12-22T06:14:51.237Z,3.30
2022-12-22T06:17:18.257Z,3.53
2022-12-22T06:19:45.504Z,3.59
2022-12-22T06:22:12.646Z,3.78
2022-12-22T06:24:39.796Z,4.02
2022-12-22T06:27:09.298Z,4.08
2022-12-22T06:29:36.337Z,4.41
2022-12-22T06:32:04.724Z,4.96
2022-12-22T06:34:31.899Z,5.96
2022-12-22T06:36:59.415Z,6.60
2022-12-22T06:39:26.467Z,7.46
2022-12-22T06:42:12.147Z,8.22
2022-12-22T06:44:39.159Z,7.78
2022-12-22T06:47:06.073Z,7.16
2022-12-22T06:49:32.932Z,6.66
2022-12-22T06:51:59.969Z,6.81
2022-12-22T06:54:27.096Z,6.66
2022-12-22T06:56:56.424Z,6.65
2022-12-22T06:59:23.391Z,6.63
2022-12-22T07:01:50.418Z,6.40
2022-12-22T07:04:21.124Z,6.58
2022-12-22T07:06:49.041Z,6.68
2022-12-22T07:09:16.062Z,7.41
2022-12-22T07:11:43.090Z,9.05
2022-12-22T07:14:11.171Z,10.03
2022-12-22T07:16:38.046Z,11.62
2022-12-22T07:19:05.022Z,11.88
2022-12-22T07:21:32.023Z,12.03
2022-12-22T07:23:58.908Z,10.66
2022-12-22T07:26:25.713Z,10.08
2022-12-22T07:28:52.574Z,9.62
2022-12-22T07:31:19.545Z,10.58
2022-12-22T07:33:47.050Z,9.31
2022-12-22T07:36:17.704Z,9.79
2022-12-22T07:38:46.914Z,9.55
2022-12-22T07:41:34.892Z,9.43
2022-12-22T07:44:02.469Z,9.95
2022-12-22T07:46:32.692Z,9.49
2022-12-22T07:49:18.329Z,10.96
2022-12-22T07:51:45.347Z,9.87
2022-12-22T07:54:15.121Z,10.58
2022-12-22T07:56:43.644Z,11.04
2022-12-22T07:59:10.819Z,11.07
2022-12-22T08:01:38.947Z,10.47
2022-12-22T08:04:06.099Z,12.03
2022-12-22T08:06:34.445Z,10.28
2022-12-22T08:09:01.823Z,9.85
2022-12-22T08:11:29.707Z,11.79
2022-12-22T08:14:01.209Z,13.49
2022-12-22T08:16:29.253Z,13.09
2022-12-22T08:18:56.889Z,11.80
2022-12-22T08:21:24.123Z,11.69
2022-12-22T08:23:51.301Z,13.80
2022-12-22T08:26:27.482Z,14.13
2022-12-22T08:28:59.920Z,13.77
2022-12-22T08:31:29.284Z,13.24
2022-12-22T08:33:58.924Z,12.60
2022-12-22T08:36:26.668Z,11.65
2022-12-22T08:38:53.933Z,13.07
2022-12-22T08:41:40.920Z,13.92
2022-12-22T08:44:08.576Z,13.42
2022-12-22T08:46:35.518Z,13.46
2022-12-22T08:49:06.831Z,13.53
2022-12-22T08:51:33.965Z,13.66
2022-12-22T08:54:05.960Z,13.83
2022-12-22T08:56:33.749Z,13.46
2022-12-22T08:59:05.716Z,13.29
2022-12-22T09:01:34.169Z,13.61
2022-12-22T09:04:01.454Z,13.42
2022-12-22T09:06:34.589Z,12.91
2022-12-22T09:09:07.250Z,12.31
2022-12-22T09:11:34.393Z,12.14
2022-12-22T09:14:02.891Z,12.43
2022-12-22T09:16:31.872Z,13.31
2022-12-22T09:18:59.377Z,13.68
2022-12-22T09:21:27.258Z,14.07
2022-12-22T09:23:55.289Z,14.50
2022-12-22T09:26:24.486Z,15.10
2022-12-22T09:28:51.943Z,15.16
2022-12-22T09:31:23.449Z,15.53
2022-12-22T09:33:52.096Z,15.59
2022-12-22T09:36:22.487Z,15.79
2022-12-22T09:38:49.706Z,14.80
2022-12-22T09:41:23.872Z,13.26
2022-12-22T09:43:50.769Z,13.56
2022-12-22T09:46:24.582Z,14.03
2022-12-22T09:48:54.075Z,14.02
2022-12-22T09:51:26.775Z,14.10
2022-12-22T09:54:03.534Z,13.88
2022-12-22T09:56:31.287Z,14.71
2022-12-22T09:58:58.612Z,14.46
2022-12-22T10:02:04.721Z,13.66
2022-12-22T10:04:46.862Z,13.76
2022-12-22T10:07:34.996Z,13.36
2022-12-22T10:10:25.207Z,13.55
2022-12-22T10:12:55.831Z,13.77
2022-12-22T10:15:23.413Z,13.62
2022-12-22T10:17:52.708Z,13.59
2022-12-22T10:20:19.555Z,13.18
2022-12-22T10:23:02.109Z,13.89
2022-12-22T10:28:51.155Z,14.78
2022-12-22T10:31:31.079Z,14.93
2022-12-22T10:34:15.663Z,14.73
2022-12-22T10:36:57.724Z,14.55
2022-12-22T10:39:27.313Z,14.46
2022-12-22T10:42:00.237Z,14.33
2022-12-22T10:44:31.745Z,14.34
2022-12-22T10:47:01.679Z,14.18
2022-12-22T10:52:29.147Z,14.19
2022-12-22T10:55:26.257Z,13.96
2022-12-22T10:58:15.735Z,13.50
2022-12-22T11:00:45.478Z,13.86
2022-12-22T11:03:19.141Z,13.72
2022-12-22T11:05:52.403Z,13.88
2022-12-22T11:08:20.760Z,13.52
2022-12-22T11:10:53.732Z,13.18
2022-12-22T11:13:52.072Z,13.18
2022-12-22T11:16:43.548Z,13.31
2022-12-22T11:19:19.503Z,13.31
2022-12-22T11:21:52.688Z,13.01
2022-12-22T11:24:22.696Z,13.19
2022-12-22T11:27:23.392Z,13.15
2022-12-22T11:30:03.034Z,13.10
2022-12-22T11:32:41.953Z,13.14
2022-12-22T11:35:14.689Z,13.11
2022-12-22T11:37:47.322Z,13.08
2022-12-22T11:40:49.468Z,12.93
2022-12-22T11:43:43.581Z,12.84
2022-12-22T11:46:41.674Z,12.59
2022-12-22T11:49:17.831Z,12.57
2022-12-22T11:52:11.399Z,12.65
2022-12-22T11:54:57.011Z,12.56
2022-12-22T11:57:48.613Z,12.50
2022-12-22T12:00:18.577Z,12.40
2022-12-22T12:03:23.503Z,12.38
2022-12-22T12:05:56.580Z,12.31
2022-12-22T12:08:26.217Z,12.28
2022-12-22T12:11:27.361Z,12.20
2022-12-22T12:14:24.551Z,12.21
2022-12-22T12:17:03.905Z,12.14
2022-12-22T12:19:42.877Z,12.08
2022-12-22T12:22:20.186Z,12.02
2022-12-22T12:25:11.786Z,12.03
2022-12-22T12:27:45.863Z,11.98
2022-12-22T12:33:24.526Z,11.78
2022-12-22T12:36:14.208Z,11.77
2022-12-22T12:39:08.853Z,11.78
2022-12-22T12:41:45.200Z,11.76
2022-12-22T12:44:18.536Z,11.75
2022-12-22T12:47:12.557Z,11.72
2022-12-22T12:49:39.643Z,11.66
2022-12-22T12:52:08.179Z,11.72
2022-12-22T12:54:42.580Z,11.72
2022-12-22T12:57:24.630Z,11.68
2022-12-22T12:59:54.620Z,11.77
2022-12-22T13:02:28.093Z,11.78
2022-12-22T13:05:13.302Z,11.85
2022-12-22T13:08:12.731Z,11.83
2022-12-22T13:10:55.003Z,11.71
2022-12-22T13:13:21.850Z,11.69
2022-12-22T13:16:09.960Z,11.68
2022-12-22T13:18:49.824Z,11.72
2022-12-22T13:24:25.158Z,11.64
2022-12-22T13:26:56.151Z,11.59
2022-12-22T13:29:23.158Z,11.55
2022-12-22T13:31:59.760Z,11.51
2022-12-22T13:34:57.250Z,11.52
2022-12-22T13:37:26.021Z,11.46
2022-12-22T13:40:19.485Z,11.40
2022-12-22T13:42:52.276Z,11.31
2022-12-22T13:45:40.597Z,11.18
2022-12-22T13:48:18.134Z,11.09
2022-12-22T13:50:52.841Z,11.17
2022-12-22T13:56:24.013Z,11.16
2022-12-22T13:59:34.846Z,11.22
2022-12-22T14:02:16.677Z,11.18
2022-12-22T14:05:03.704Z,11.15
2022-12-22T14:07:31.470Z,11.09
2022-12-22T14:09:58.556Z,10.99
2022-12-22T14:12:30.704Z,10.97
2022-12-22T14:15:02.571Z,10.94
2022-12-22T14:17:31.668Z,10.92
2022-12-22T14:20:20.077Z,10.85
2022-12-22T14:22:58.385Z,10.77
2022-12-22T14:25:34.953Z,10.84
2022-12-22T14:28:02.867Z,10.84
2022-12-22T14:30:39.338Z,10.78
2022-12-22T14:33:16.846Z,10.73
2022-12-22T14:35:44.518Z,10.63
2022-12-22T14:38:24.168Z,10.70
2022-12-22T14:40:57.096Z,10.72
2022-12-22T14:43:31.682Z,10.63
2022-12-22T14:46:08.936Z,10.55
2022-12-22T14:48:45.836Z,10.52
2022-12-22T14:51:18.842Z,10.50
2022-12-22T14:53:53.436Z,10.36
2022-12-22T14:56:22.644Z,10.25
2022-12-22T14:58:50.453Z,10.29
2022-12-22T15:01:20.698Z,10.24
2022-12-22T15:04:08.325Z,10.22
2022-12-22T15:06:40.319Z,10.21
2022-12-22T15:09:09.135Z,10.30
2022-12-22T15:11:39.312Z,10.17
2022-12-22T15:14:09.908Z,10.15
2022-12-22T15:16:39.786Z,10.16
2022-12-22T15:19:06.956Z,10.20
2022-12-22T15:21:35.623Z,10.19
2022-12-22T15:24:03.709Z,10.15
2022-12-22T15:26:37.511Z,9.83
2022-12-22T15:29:05.107Z,9.93
2022-12-22T15:31:32.696Z,9.78
2022-12-22T15:34:03.217Z,9.80
2022-12-22T15:36:30.680Z,9.81
2022-12-22T15:38:58.169Z,9.83
2022-12-22T15:41:25.283Z,9.84
2022-12-22T15:43:59.874Z,9.71
2022-12-22T15:46:27.174Z,9.66
2022-12-22T15:48:54.431Z,9.56
2022-12-22T15:51:28.326Z,9.55
2022-12-22T15:53:57.486Z,9.60
2022-12-22T15:56:26.082Z,9.52
2022-12-22T15:58:53.976Z,9.61
2022-12-22T16:01:21.051Z,9.59
2022-12-22T16:03:48.771Z,9.57
2022-12-22T16:06:17.991Z,9.55
2022-12-22T16:08:50.041Z,9.48
2022-12-22T16:11:17.974Z,9.50
2022-12-22T16:13:45.640Z,9.44
2022-12-22T16:16:12.735Z,9.47
2022-12-22T16:18:40.085Z,9.51
2022-12-22T16:21:30.448Z,9.31
2022-12-22T16:23:58.961Z,9.34
2022-12-22T16:26:26.547Z,9.43
2022-12-22T16:28:54.413Z,9.32
2022-12-22T16:31:23.225Z,9.29
2022-12-22T16:33:51.003Z,9.35
2022-12-22T16:36:18.531Z,9.32
2022-12-22T16:38:46.135Z,9.33
2022-12-22T16:41:24.241Z,9.34
2022-12-22T16:43:53.803Z,9.34
2022-12-22T16:46:23.209Z,9.29
2022-12-22T16:48:55.501Z,9.33
2022-12-22T16:51:26.504Z,9.38
2022-12-22T16:53:54.359Z,9.38
2022-12-22T16:56:29.054Z,9.38
2022-12-22T16:58:56.660Z,9.41
2022-12-22T17:01:31.955Z,9.46
2022-12-22T17:04:03.874Z,9.55
2022-12-22T17:06:30.840Z,9.54
2022-12-22T17:08:57.987Z,9.53
2022-12-22T17:11:29.486Z,9.57
2022-12-22T17:14:19.808Z,9.51
2022-12-22T17:16:46.941Z,9.60
2022-12-22T17:19:14.079Z,9.60
2022-12-22T17:21:41.441Z,9.59
2022-12-22T17:24:13.009Z,9.59
2022-12-22T17:26:40.272Z,9.57
2022-12-22T17:29:10.246Z,9.60
2022-12-22T17:31:37.400Z,9.60
2022-12-22T17:34:17.287Z,9.50
2022-12-22T17:36:46.631Z,9.50
2022-12-22T17:39:17.233Z,9.51
2022-12-22T17:41:45.302Z,9.48
2022-12-22T17:44:22.567Z,9.52
2022-12-22T17:46:49.995Z,9.48
2022-12-22T17:49:20.179Z,9.49
2022-12-22T17:51:48.351Z,9.31
2022-12-22T17:54:22.798Z,9.38
2022-12-22T17:56:50.145Z,9.30
2022-12-22T17:59:17.344Z,9.19
2022-12-22T18:01:44.948Z,9.12
2022-12-22T18:04:12.019Z,9.12
2022-12-22T18:06:41.732Z,8.98
2022-12-22T18:09:19.090Z,8.89
2022-12-22T18:11:46.415Z,8.85
2022-12-22T18:14:15.595Z,8.57
2022-12-22T18:16:44.767Z,8.57
2022-12-22T18:19:12.691Z,8.66
2022-12-22T18:21:40.150Z,8.71
2022-12-22T18:24:15.726Z,8.61
2022-12-22T18:26:43.562Z,8.61
2022-12-22T18:29:15.370Z,8.71
2022-12-22T18:31:44.555Z,8.65
2022-12-22T18:34:12.882Z,8.68
2022-12-22T18:36:44.000Z,8.64
2022-12-22T18:39:19.247Z,8.65
2022-12-22T18:41:48.603Z,8.58
2022-12-22T18:44:20.079Z,8.64
2022-12-22T18:46:47.930Z,8.62
2022-12-22T18:49:15.973Z,8.65
2022-12-22T18:51:45.209Z,8.70
2022-12-22T18:54:26.421Z,8.67
2022-12-22T18:59:29.520Z,8.61
2022-12-22T19:02:04.279Z,8.65
2022-12-22T19:07:20.523Z,8.72
2022-12-22T19:09:48.028Z,8.76
2022-12-22T19:12:23.519Z,8.67
2022-12-22T19:20:15.955Z,8.80
2022-12-22T19:22:47.454Z,8.76
2022-12-22T19:38:40.179Z,8.78
2022-12-22T19:41:13.998Z,8.95
2022-12-22T19:43:40.946Z,9.00
2022-12-22T19:46:08.087Z,9.00
2022-12-22T19:48:35.168Z,9.09
2022-12-22T19:51:02.163Z,9.02
2022-12-22T19:53:29.378Z,8.99
2022-12-22T19:55:57.575Z,8.62
2022-12-22T19:58:27.231Z,8.44
2022-12-22T20:00:54.975Z,8.45
2022-12-22T20:03:24.651Z,8.42
2022-12-22T20:05:52.731Z,8.47
2022-12-22T20:08:20.269Z,8.53
2022-12-22T20:10:49.530Z,8.52
2022-12-22T20:13:24.350Z,8.56
2022-12-22T20:15:54.828Z,8.65
2022-12-22T20:18:24.337Z,8.55
2022-12-22T20:21:03.192Z,8.56
2022-12-22T20:23:34.432Z,8.62
2022-12-22T20:26:05.307Z,8.62
2022-12-22T20:28:36.083Z,8.59
2022-12-22T20:31:04.595Z,8.60
2022-12-22T20:33:32.411Z,8.64
2022-12-22T20:36:02.246Z,8.72
2022-12-22T20:38:36.465Z,8.64
2022-12-22T20:41:06.144Z,8.67
2022-12-22T20:43:34.303Z,8.66
2022-12-22T20:46:11.917Z,8.61
2022-12-22T20:48:43.978Z,8.61
2022-12-22T20:51:14.925Z,8.62
2022-12-22T20:53:43.220Z,8.63
2022-12-22T20:56:41.428Z,8.71
2022-12-22T20:59:22.896Z,8.72
2022-12-22T21:01:52.313Z,8.76
2022-12-22T21:04:19.420Z,8.75
2022-12-22T21:06:51.267Z,8.79
2022-12-22T21:09:18.687Z,8.75
2022-12-22T21:14:16.237Z,8.65
2022-12-22T21:19:32.879Z,8.63
2022-12-22T21:21:59.801Z,8.64
2022-12-22T21:24:26.936Z,8.65
2022-12-22T21:26:56.270Z,8.52
2022-12-22T21:29:27.524Z,8.56
2022-12-22T21:31:54.680Z,8.55
2022-12-22T21:34:22.115Z,8.34
2022-12-22T21:36:54.602Z,8.34
2022-12-22T21:39:30.301Z,8.39
2022-12-22T21:42:00.715Z,8.31
2022-12-22T21:44:33.973Z,8.36
2022-12-22T21:47:04.627Z,8.31
2022-12-22T21:49:33.665Z,8.30
2022-12-22T21:52:01.111Z,8.35
2022-12-22T21:54:28.252Z,8.31
2022-12-22T21:56:55.703Z,8.30
2022-12-22T21:59:23.629Z,8.25
2022-12-22T22:01:53.225Z,8.20
2022-12-22T22:04:21.148Z,8.10
2022-12-22T22:06:48.547Z,8.15
2022-12-22T22:09:17.881Z,8.05
2022-12-22T22:12:03.270Z,8.00
2022-12-22T22:14:30.304Z,7.92
2022-12-22T22:16:57.336Z,7.88
2022-12-22T22:19:24.404Z,7.88
2022-12-22T22:21:51.427Z,7.97
2022-12-22T22:24:18.436Z,7.88
2022-12-22T22:26:46.682Z,7.78
2022-12-22T22:29:13.989Z,7.86
2022-12-22T22:33:33.125Z,7.72
2022-12-22T22:36:06.201Z,7.72
2022-12-22T22:38:33.224Z,7.66
2022-12-22T22:41:00.452Z,7.64
2022-12-22T22:43:27.528Z,7.64
2022-12-22T22:45:54.885Z,7.60
2022-12-22T22:48:23.548Z,7.59
2022-12-22T22:50:51.115Z,7.56
2022-12-22T22:53:18.353Z,7.62
2022-12-22T22:55:45.350Z,7.52
2022-12-22T22:58:12.428Z,7.60
2022-12-22T23:00:40.203Z,7.49
2022-12-22T23:03:07.756Z,7.58
2022-12-22T23:05:34.977Z,7.60
2022-12-22T23:08:02.484Z,7.49
2022-12-22T23:10:29.294Z,7.49
2022-12-22T23:12:56.342Z,7.47
2022-12-22T23:15:23.375Z,7.41
2022-12-22T23:17:52.127Z,7.35
2022-12-22T23:20:19.198Z,7.37
2022-12-22T23:22:46.864Z,7.33
2022-12-22T23:25:14.374Z,7.24
2022-12-22T23:27:41.556Z,7.31
2022-12-22T23:30:09.329Z,7.29
2022-12-22T23:32:36.378Z,7.27
2022-12-22T23:35:03.483Z,7.29
2022-12-22T23:37:30.544Z,7.24
2022-12-22T23:40:10.913Z,7.35
2022-12-22T23:42:44.869Z,7.13
2022-12-22T23:45:11.638Z,7.11
2022-12-22T23:47:38.567Z,7.13
2022-12-22T23:50:06.265Z,7.08
2022-12-22T23:52:33.506Z,7.18
2022-12-22T23:55:00.767Z,7.05
2022-12-22T23:57:27.705Z,6.89
2022-12-22T23:59:54.771Z,7.02
